Redwood City, CA (94064)

4:02 PM PDT on March 30, 2015 (GMT -0700)
Redwood City Hills | | Change Station
CLOSE
Current Station
Personal Weather Station
Location: Redwood City, CA
Elevation: 170 ft
Nearby Weather Stations

Elev 170 ft 37.47 °N, 122.25 °W | Updated 1 minute ago

Mostly Cloudy
Mostly Cloudy
76.6 °F
Feels Like 78 °F
N
3.6
Wind Variable Wind from NW
Gusts 6.5 mph

Today
High -- | Low -- °F
--% Chance of Precip.
Yesterday
High -- | Low -- °F
Precip. -- in
6:57 AM 7:29 PM
Waxing Gibbous, 82% visible
Pressure 30.06 in
Visibility 10.0 miles
Clouds Mostly Cloudy 20000 ft
Heat Index 78 °F
Dew Point 45 °F
Humidity 33%
Rainfall 0.00 in
Snow Depth Not available.
UV 3 out of 12
Pollen 11.80 out of 12
Air Quality Not available.
Flu Activity Not available.
METAR KSQL 302247Z 25014G22KT 10SM BKN200 17/09 A3006

More Conditions Fewer Conditions

Pressure 30.06 in
Visibility 10.0 miles
Clouds Mostly Cloudy 20000 ft
Heat Index 78 °F
Dew Point 45 °F
Humidity 33%
Rainfall 0.00 in
Snow Depth Not available.
UV 3 out of 12
Pollen 11.80 out of 12
Air Quality Not available.
Flu Activity Not available.
METAR KSQL 302247Z 25014G22KT 10SM BKN200 17/09 A3006

More Conditions Fewer Conditions

10-Day Weather Forecast

Almanac

Astronomy

Mar. 30, 2015 Rise Set
Actual Time
Civil Twilight
Nautical Twilight
Astronomical Twilight
Moon
Length of Visible Light
Length of Day
Tomorrow will be .
, % of the Moon is Illuminated

Today's Extremes

State Highs State Lows

Community

WunderPhotos

Upload Photos

1,809,617 photos uploaded!

WunderBlogs® & News

Nearby

Air Quality

  Air Quality AQ Index Pollutant
Not available.

Snow Depth

Station Depth Elevation

Earthquake Activity

City Distance Mag. Time & Date
Minimum magnitude displayed is 2.5.

Coastal Water Temperatures

Place Temperature

Stations

Nearby Weather Stations

Station Location Temp. Windchill Dew Point Humidity Wind Precip. Elev Updated Type